OITL  Ardabil  Airport

Ardabil, Iran

Add Bookmark
ICAO OITL
IATA ADU
Type Airport
Status Operational
Latitude
38° 19' 32" N
38.325699
Longitude
48° 25' 27" E
48.424400
Local (GMT +3.5 ) UTC
Oct 2, 2016 12:06 am Oct 1, 2016 20:36
Sunrise-Sunset Local UTC
Begin Civil Twilight 05:45 am 02:15
Sunrise 06:12 am 02:42
Sunset 05:58 pm 14:28
End Civil Twilight 06:24 pm 14:54
VFR
VFR
MVFR
MVFR
IFR
IFR
LIFR
LIFR
Unknown
Unavailable

Current Weather

METAR Observed MVFR
OITL 012000Z 35004KT 7000 VCFG SCT005 BKN020 07/07 Q1029 Sat, Oct 1, 2016 @ 20:00 UTC
(36 Minutes ago)
Marginal Visual Flight Rules
Wind Visibility Clouds Conditions
350° at 4 knots (7 kph) 7,001 m
  • Scattered at 500 ft AGL
  • Broken at 2,000 ft AGL
  • Nearby Fog
Temperatures Readings Precipitation
Current Temp
7°C
45°F
Dewpoint
7°C
45°F
Humidity 100%
Altimeter 30.38" Hg
Sea Level Pressure 1,029 mb
Field Elevation
1,316 m
4,318 ft
None Recorded

Additional weather within a 92.6km radius of OITL

Map ICAO Location
UBBL 58km NE (036°)
VFR
VFR
MVFR
MVFR
IFR
IFR
LIFR
LIFR
Unknown
Unavailable
-
-

CheckWX.com is intended as a tool to help pilots better visualize weather data. It is not intended as a substitute for an official weather briefing obtained from a Flight Service Station. CheckWX.com does not meet the FAA requirements for an official pre-flight weather briefing. Therefore, it's important that pilots still call and obtain an official FSS pre-flight weather briefing.

© 2007-2016 CheckWX.com
20:36:19 UTC